Time;durP1;ratioP1;P1;durP2;ratioP2;P2;SDS_P1;SDS_P2;PMS_P1;PMS_P2;Temp;Humidity;BMP_temperature;BMP_pressure;BME280_temperature;BME280_humidity;BME280_pressure;Samples;Min_cycle;Max_cycle;Signal;HPM_P1;HPM_P2
2023/03/09 00:02:22;;;;;;;1.70;1.30;;;;;;;;;;6144708;23;20504;-79
2023/03/09 00:05:27;;;;;;;3.23;1.40;;;;;;;;;;6125931;23;20174;-79
2023/03/09 00:08:32;;;;;;;3.00;1.70;;;;;;;;;;6108803;23;20174;-79
2023/03/09 00:11:40;;;;;;;1.80;1.50;;;;;;;;;;6131320;23;20190;-78
2023/03/09 00:14:44;;;;;;;3.03;1.30;;;;;;;;;;6136050;23;20465;-78
2023/03/09 00:17:48;;;;;;;4.23;1.63;;;;;;;;;;6125783;23;20171;-80
2023/03/09 00:20:52;;;;;;;1.77;1.43;;;;;;;;;;6093146;23;20186;-80
2023/03/09 00:23:57;;;;;;;3.00;1.47;;;;;;;;;;6126223;23;20166;-79
2023/03/09 00:27:02;;;;;;;4.17;1.27;;;;;;;;;;6135863;23;20158;-79
2023/03/09 00:30:08;;;;;;;5.70;1.60;;;;;;;;;;6135854;23;20182;-79
2023/03/09 00:33:12;;;;;;;3.23;1.50;;;;;;;;;;6110088;23;20178;-80
2023/03/09 00:36:17;;;;;;;3.50;1.30;;;;;;;;;;6110770;23;20627;-79
2023/03/09 00:39:21;;;;;;;3.87;1.27;;;;;;;;;;6104090;23;20158;-79
2023/03/09 00:42:25;;;;;;;2.47;1.23;;;;;;;;;;6112130;23;20189;-79
2023/03/09 00:45:29;;;;;;;3.77;1.50;;;;;;;;;;6137074;23;20159;-79
2023/03/09 00:48:36;;;;;;;3.20;1.63;;;;;;;;;;6120114;23;20155;-79
2023/03/09 00:51:41;;;;;;;2.70;1.30;;;;;;;;;;6098111;23;20655;-78
2023/03/09 00:54:46;;;;;;;2.37;1.20;;;;;;;;;;6103292;23;20158;-79
2023/03/09 00:57:50;;;;;;;1.70;1.20;;;;;;;;;;6152868;23;20154;-78
2023/03/09 01:00:55;;;;;;;2.07;1.23;;;;;;;;;;6118736;23;20190;-79
2023/03/09 01:03:59;;;;;;;1.70;0.97;;;;;;;;;;6137081;23;20461;-79
2023/03/09 01:07:03;;;;;;;1.80;1.10;;;;;;;;;;6118551;23;20154;-79
2023/03/09 01:10:11;;;;;;;3.90;1.10;;;;;;;;;;6118672;23;20489;-79
2023/03/09 01:13:15;;;;;;;1.77;1.03;;;;;;;;;;6117788;23;20155;-79
2023/03/09 01:16:19;;;;;;;1.93;1.00;;;;;;;;;;6101390;23;20473;-79
2023/03/09 01:19:24;;;;;;;1.80;0.90;;;;;;;;;;6135137;23;20155;-78
2023/03/09 01:22:28;;;;;;;2.77;0.80;;;;;;;;;;6126528;23;20190;-80
2023/03/09 01:25:32;;;;;;;1.10;0.90;;;;;;;;;;6118423;23;20158;-79
2023/03/09 01:28:36;;;;;;;0.80;0.73;;;;;;;;;;6092197;23;20170;-79
2023/03/09 01:31:41;;;;;;;2.27;0.90;;;;;;;;;;6113478;23;20655;-79
2023/03/09 01:34:45;;;;;;;1.27;0.60;;;;;;;;;;6103842;23;20154;-79
2023/03/09 01:37:49;;;;;;;1.47;0.90;;;;;;;;;;6135964;23;20158;-78
2023/03/09 01:40:53;;;;;;;2.30;1.20;;;;;;;;;;6116157;23;20186;-78
2023/03/09 01:43:58;;;;;;;1.03;0.70;;;;;;;;;;6135640;23;20158;-79
2023/03/09 01:47:02;;;;;;;1.67;0.80;;;;;;;;;;6109445;23;20175;-79
2023/03/09 01:50:07;;;;;;;2.17;0.70;;;;;;;;;;6109139;23;20198;-79
2023/03/09 01:53:15;;;;;;;1.23;0.80;;;;;;;;;;6135296;23;20316;-78
2023/03/09 01:56:21;;;;;;;1.00;0.90;;;;;;;;;;6135593;23;20158;-80
2023/03/09 01:59:28;;;;;;;0.80;0.60;;;;;;;;;;6134941;23;20155;-78
2023/03/09 02:02:37;;;;;;;1.47;0.63;;;;;;;;;;6109753;23;20190;-79
2023/03/09 02:05:47;;;;;;;0.87;0.67;;;;;;;;;;6119200;23;20162;-78
2023/03/09 02:09:25;;;;;;;1.63;0.60;;;;;;;;;;6118104;23;20621;-78
2023/03/09 02:12:31;;;;;;;1.63;0.60;;;;;;;;;;6109388;23;20524;-77
2023/03/09 02:15:36;;;;;;;1.33;0.83;;;;;;;;;;6134828;23;20155;-78
2023/03/09 02:18:40;;;;;;;1.67;0.60;;;;;;;;;;6118453;23;20158;-78
2023/03/09 02:21:53;;;;;;;2.80;0.87;;;;;;;;;;6130992;23;20186;-78
2023/03/09 02:25:26;;;;;;;1.20;0.70;;;;;;;;;;6117383;23;20166;-77
2023/03/09 02:28:30;;;;;;;1.57;0.63;;;;;;;;;;6134205;23;20154;-78
2023/03/09 02:31:34;;;;;;;0.70;0.70;;;;;;;;;;6123203;23;20194;-77
2023/03/09 02:34:38;;;;;;;0.70;0.60;;;;;;;;;;6139910;23;20170;-77
2023/03/09 02:37:43;;;;;;;1.63;0.70;;;;;;;;;;6150850;23;20154;-77
2023/03/09 02:40:59;;;;;;;0.93;0.60;;;;;;;;;;6114006;23;20189;-78
2023/03/09 02:44:04;;;;;;;1.27;0.50;;;;;;;;;;6135590;23;20155;-77
2023/03/09 02:47:18;;;;;;;2.33;0.50;;;;;;;;;;6107937;23;20174;-78
2023/03/09 02:50:22;;;;;;;2.23;0.47;;;;;;;;;;6134350;23;20182;-77
2023/03/09 02:53:26;;;;;;;0.57;0.40;;;;;;;;;;6108079;23;20174;-78
2023/03/09 02:56:32;;;;;;;1.83;0.40;;;;;;;;;;6135334;23;20155;-78
2023/03/09 02:59:37;;;;;;;0.50;0.40;;;;;;;;;;6118584;23;20158;-79
2023/03/09 03:02:41;;;;;;;0.50;0.40;;;;;;;;;;6126342;23;20190;-77
2023/03/09 03:05:46;;;;;;;1.43;0.50;;;;;;;;;;6135696;23;20154;-78
2023/03/09 03:08:51;;;;;;;1.97;0.60;;;;;;;;;;6135682;23;20155;-78
2023/03/09 03:11:55;;;;;;;1.73;0.60;;;;;;;;;;6129140;23;20195;-77
2023/03/09 03:14:59;;;;;;;1.53;0.50;;;;;;;;;;6135474;23;20154;-78
2023/03/09 03:18:04;;;;;;;0.90;0.57;;;;;;;;;;6102312;23;20158;-79
2023/03/09 03:21:10;;;;;;;1.00;0.60;;;;;;;;;;6115664;23;20186;-78
2023/03/09 03:24:18;;;;;;;0.60;0.40;;;;;;;;;;6092979;23;20174;-78
2023/03/09 03:27:23;;;;;;;0.47;0.47;;;;;;;;;;6102229;23;20460;-78
2023/03/09 03:30:27;;;;;;;2.00;0.60;;;;;;;;;;6118027;23;20186;-78
2023/03/09 03:33:34;;;;;;;0.80;0.43;;;;;;;;;;6109623;23;20182;-78
2023/03/09 03:36:38;;;;;;;0.73;0.40;;;;;;;;;;6118541;23;20163;-78
2023/03/09 03:39:43;;;;;;;0.60;0.40;;;;;;;;;;6118349;23;20483;-78
2023/03/09 03:42:47;;;;;;;1.27;0.60;;;;;;;;;;6124956;23;20194;-78
2023/03/09 03:45:53;;;;;;;2.07;0.60;;;;;;;;;;6118349;23;20162;-78
2023/03/09 03:48:59;;;;;;;2.43;0.50;;;;;;;;;;6134948;23;20155;-78
2023/03/09 03:52:06;;;;;;;0.50;0.47;;;;;;;;;;6127921;23;20523;-77
2023/03/09 03:55:10;;;;;;;2.87;0.50;;;;;;;;;;6117305;23;20154;-77
2023/03/09 03:58:15;;;;;;;0.73;0.40;;;;;;;;;;6135149;23;20154;-78
2023/03/09 04:01:20;;;;;;;0.37;0.30;;;;;;;;;;6130853;23;20190;-78
2023/03/09 04:04:30;;;;;;;1.17;0.50;;;;;;;;;;6135244;23;20154;-78
2023/03/09 04:07:40;;;;;;;0.80;0.40;;;;;;;;;;6134187;23;20154;-78
2023/03/09 04:10:45;;;;;;;0.80;0.57;;;;;;;;;;6134836;23;20206;-78
2023/03/09 04:13:50;;;;;;;1.37;0.50;;;;;;;;;;6118924;23;20150;-78
2023/03/09 04:16:55;;;;;;;4.13;0.60;;;;;;;;;;6134955;23;20496;-77
2023/03/09 04:19:59;;;;;;;1.17;0.43;;;;;;;;;;6108272;23;20170;-79
2023/03/09 04:23:04;;;;;;;1.73;0.40;;;;;;;;;;6135653;23;20158;-79
2023/03/09 04:26:10;;;;;;;1.63;0.53;;;;;;;;;;6137142;23;20156;-79
2023/03/09 04:29:24;;;;;;;1.03;0.43;;;;;;;;;;6127616;23;20175;-78
2023/03/09 04:32:29;;;;;;;0.70;0.50;;;;;;;;;;6119986;23;20662;-79
2023/03/09 04:35:42;;;;;;;2.30;0.60;;;;;;;;;;6147813;23;20591;-78
2023/03/09 04:38:50;;;;;;;2.50;0.60;;;;;;;;;;6164673;23;20153;-78
2023/03/09 04:41:56;;;;;;;2.53;0.80;;;;;;;;;;6140930;23;20185;-78
2023/03/09 04:45:00;;;;;;;2.80;0.50;;;;;;;;;;6164896;23;20157;-77
2023/03/09 04:48:05;;;;;;;3.13;0.70;;;;;;;;;;6163761;23;20153;-78
2023/03/09 04:51:10;;;;;;;1.80;0.60;;;;;;;;;;6163156;23;20672;-79
2023/03/09 04:54:14;;;;;;;0.80;0.60;;;;;;;;;;6122279;23;20170;-78
2023/03/09 04:57:18;;;;;;;2.40;0.70;;;;;;;;;;6121348;23;20174;-78
2023/03/09 05:00:25;;;;;;;1.30;0.80;;;;;;;;;;6155078;23;20169;-78
2023/03/09 05:03:29;;;;;;;2.00;0.77;;;;;;;;;;6166004;23;20483;-78
2023/03/09 05:06:35;;;;;;;1.80;0.70;;;;;;;;;;6166180;23;20153;-78
2023/03/09 05:09:40;;;;;;;1.80;0.63;;;;;;;;;;6166231;23;20157;-79
2023/03/09 05:12:45;;;;;;;1.83;0.80;;;;;;;;;;6156404;23;20193;-78
2023/03/09 05:15:52;;;;;;;2.63;0.83;;;;;;;;;;6149716;23;20158;-78
2023/03/09 05:18:56;;;;;;;2.13;0.70;;;;;;;;;;6150778;23;20154;-78
2023/03/09 05:22:06;;;;;;;2.10;0.60;;;;;;;;;;6159932;23;20183;-78
2023/03/09 05:25:11;;;;;;;1.40;0.80;;;;;;;;;;6149736;23;20598;-78
2023/03/09 05:28:15;;;;;;;2.70;0.87;;;;;;;;;;6158526;23;20173;-79
2023/03/09 05:31:20;;;;;;;3.20;0.83;;;;;;;;;;6140203;23;20201;-78
2023/03/09 05:34:25;;;;;;;1.40;0.73;;;;;;;;;;6108529;23;20174;-78
2023/03/09 05:37:32;;;;;;;1.53;0.70;;;;;;;;;;6148688;23;20153;-78
2023/03/09 05:40:38;;;;;;;2.17;0.70;;;;;;;;;;6165969;23;20153;-79
2023/03/09 05:43:45;;;;;;;1.27;0.50;;;;;;;;;;6156919;23;20170;-79
2023/03/09 05:46:49;;;;;;;1.10;0.70;;;;;;;;;;6123453;23;20166;-79
2023/03/09 05:49:54;;;;;;;0.60;0.50;;;;;;;;;;6149049;23;20154;-78
2023/03/09 05:52:59;;;;;;;1.97;0.50;;;;;;;;;;6149374;23;20158;-78
2023/03/09 05:56:06;;;;;;;0.83;0.60;;;;;;;;;;6167002;23;20498;-78
2023/03/09 05:59:11;;;;;;;1.07;0.57;;;;;;;;;;6156608;23;20174;-78
2023/03/09 06:02:15;;;;;;;0.97;0.57;;;;;;;;;;6158775;23;20182;-78
2023/03/09 06:05:20;;;;;;;0.50;0.40;;;;;;;;;;6133263;23;20158;-78
2023/03/09 06:08:25;;;;;;;1.47;0.50;;;;;;;;;;6167405;23;20158;-78
2023/03/09 06:11:32;;;;;;;1.47;0.70;;;;;;;;;;6112644;23;20526;-78
2023/03/09 06:14:37;;;;;;;0.77;0.53;;;;;;;;;;6149528;23;20158;-78
2023/03/09 06:17:42;;;;;;;0.70;0.50;;;;;;;;;;6150100;23;20150;-78
2023/03/09 06:20:51;;;;;;;0.57;0.47;;;;;;;;;;6139569;23;20182;-79
2023/03/09 06:23:57;;;;;;;1.30;0.60;;;;;;;;;;6149522;23;20472;-78
2023/03/09 06:27:03;;;;;;;2.63;0.63;;;;;;;;;;6149546;23;20161;-79
2023/03/09 06:30:12;;;;;;;0.97;0.60;;;;;;;;;;6134729;23;20158;-79
2023/03/09 06:33:18;;;;;;;2.43;1.40;;;;;;;;;;6156887;22;20181;-78
2023/03/09 06:36:28;;;;;;;1.40;1.00;;;;;;;;;;6133236;23;20161;-78
2023/03/09 06:39:33;;;;;;;1.30;0.77;;;;;;;;;;6151549;23;20161;-78
2023/03/09 06:42:40;;;;;;;1.30;0.80;;;;;;;;;;6159361;23;20181;-78
2023/03/09 06:45:45;;;;;;;1.80;1.00;;;;;;;;;;6117338;23;20154;-79
2023/03/09 06:48:50;;;;;;;3.03;0.70;;;;;;;;;;6150740;23;20583;-79
2023/03/09 06:51:54;;;;;;;1.27;0.70;;;;;;;;;;6111039;23;20201;-78
2023/03/09 06:54:59;;;;;;;3.67;1.30;;;;;;;;;;6150265;23;20154;-77
2023/03/09 06:58:06;;;;;;;4.63;4.23;;;;;;;;;;6144543;23;20155;-79
2023/03/09 07:01:13;;;;;;;2.90;1.13;;;;;;;;;;6164120;23;20524;-78
2023/03/09 07:04:18;;;;;;;3.23;1.30;;;;;;;;;;6134750;23;20158;-79
2023/03/09 07:07:22;;;;;;;4.43;1.00;;;;;;;;;;6169651;23;20154;-79
2023/03/09 07:10:26;;;;;;;2.37;1.30;;;;;;;;;;6149820;23;20492;-78
2023/03/09 07:13:32;;;;;;;3.73;1.47;;;;;;;;;;6167450;23;20165;-79
2023/03/09 07:16:36;;;;;;;3.53;1.20;;;;;;;;;;6133616;23;20158;-78
2023/03/09 07:19:41;;;;;;;3.90;1.20;;;;;;;;;;6137165;23;20157;-79
2023/03/09 07:22:45;;;;;;;4.33;1.53;;;;;;;;;;6144119;23;20185;-78
2023/03/09 07:25:49;;;;;;;7.13;2.00;;;;;;;;;;6166879;23;20158;-79
2023/03/09 07:28:53;;;;;;;3.17;1.37;;;;;;;;;;6166535;23;20158;-79
2023/03/09 07:32:00;;;;;;;7.00;2.30;;;;;;;;;;6143353;23;20197;-79
2023/03/09 07:35:04;;;;;;;7.87;3.37;;;;;;;;;;6132958;23;20153;-78
2023/03/09 07:38:08;;;;;;;7.60;2.90;;;;;;;;;;6168342;23;20157;-79
2023/03/09 07:41:13;;;;;;;17.00;8.87;;;;;;;;;;6163167;23;20189;-79
2023/03/09 07:44:17;;;;;;;6.50;3.10;;;;;;;;;;6150373;23;20460;-79
2023/03/09 07:47:22;;;;;;;5.93;1.93;;;;;;;;;;6166682;23;20154;-80
2023/03/09 07:50:27;;;;;;;3.83;1.93;;;;;;;;;;6157615;23;20173;-78
2023/03/09 07:53:33;;;;;;;3.47;1.40;;;;;;;;;;6143043;23;20169;-81
2023/03/09 07:56:37;;;;;;;6.07;1.20;;;;;;;;;;6173057;23;20158;-80
2023/03/09 07:59:41;;;;;;;4.90;1.40;;;;;;;;;;6135044;23;20583;-79
2023/03/09 08:02:46;;;;;;;8.40;2.00;;;;;;;;;;6139650;23;20642;-80
2023/03/09 08:05:55;;;;;;;4.23;1.30;;;;;;;;;;6167334;23;20154;-80
2023/03/09 08:08:59;;;;;;;7.33;2.00;;;;;;;;;;6150523;23;20154;-81
2023/03/09 08:12:04;;;;;;;8.03;1.90;;;;;;;;;;6108663;23;20202;-80
2023/03/09 08:15:09;;;;;;;6.53;1.97;;;;;;;;;;6164642;23;20614;-79
2023/03/09 08:18:14;;;;;;;7.03;2.97;;;;;;;;;;6130575;23;20157;-80
2023/03/09 08:21:18;;;;;;;5.03;1.77;;;;;;;;;;6162577;23;20185;-79
2023/03/09 08:24:22;;;;;;;6.47;2.27;;;;;;;;;;6136886;23;20165;-78
2023/03/09 08:27:26;;;;;;;10.40;3.30;;;;;;;;;;6165333;23;20154;-78
2023/03/09 08:30:31;;;;;;;10.90;3.27;;;;;;;;;;6130315;23;20153;-78
2023/03/09 08:33:35;;;;;;;11.93;4.43;;;;;;;;;;6127765;23;20178;-77
2023/03/09 08:36:39;;;;;;;7.87;2.93;;;;;;;;;;6101513;23;20591;-79
2023/03/09 08:39:44;;;;;;;8.30;4.63;;;;;;;;;;6124778;23;20174;-77
2023/03/09 08:42:48;;;;;;;10.33;5.23;;;;;;;;;;6125390;23;20186;-77
2023/03/09 08:45:52;;;;;;;12.53;7.90;;;;;;;;;;6118147;23;20158;-77
2023/03/09 08:48:56;;;;;;;5.90;3.47;;;;;;;;;;6125907;23;20170;-78
2023/03/09 08:52:00;;;;;;;13.47;7.50;;;;;;;;;;6124259;23;20658;-79
2023/03/09 08:55:05;;;;;;;46.87;27.83;;;;;;;;;;6134855;23;20155;-78
2023/03/09 08:58:09;;;;;;;32.53;20.63;;;;;;;;;;6141275;23;20180;-78
2023/03/09 09:01:14;;;;;;;6.63;4.17;;;;;;;;;;6124017;23;20196;-78
2023/03/09 09:04:18;;;;;;;5.30;2.33;;;;;;;;;;6135309;23;20154;-79
2023/03/09 09:07:22;;;;;;;2.53;1.23;;;;;;;;;;6136781;23;20151;-79
2023/03/09 09:10:26;;;;;;;6.03;2.80;;;;;;;;;;6118546;23;20591;-79
2023/03/09 09:13:30;;;;;;;5.40;1.63;;;;;;;;;;6109429;23;20174;-79
2023/03/09 09:16:35;;;;;;;3.63;1.30;;;;;;;;;;6136178;23;20151;-79
2023/03/09 09:19:39;;;;;;;3.70;1.60;;;;;;;;;;6119386;23;20158;-79
2023/03/09 09:22:44;;;;;;;3.13;1.20;;;;;;;;;;6126905;23;20194;-78
2023/03/09 09:25:56;;;;;;;4.70;1.70;;;;;;;;;;6136642;23;20154;-79
2023/03/09 09:29:01;;;;;;;6.00;1.30;;;;;;;;;;6102383;23;20174;-79
2023/03/09 09:32:06;;;;;;;4.53;1.50;;;;;;;;;;6112925;23;20210;-79
2023/03/09 09:35:11;;;;;;;3.37;1.00;;;;;;;;;;6148247;23;20607;-79
2023/03/09 09:38:16;;;;;;;2.10;0.90;;;;;;;;;;6135039;23;20161;-80
2023/03/09 09:41:41;;;;;;;3.57;0.90;;;;;;;;;;6162638;23;20193;-80
2023/03/09 09:44:50;;;;;;;3.97;1.20;;;;;;;;;;6166537;23;20158;-80
2023/03/09 09:47:57;;;;;;;14.93;8.90;;;;;;;;;;6131473;23;20157;-79
2023/03/09 09:51:10;;;;;;;4.50;1.47;;;;;;;;;;6146378;23;20189;-79
2023/03/09 09:54:48;;;;;;;3.30;1.30;;;;;;;;;;6115669;23;20154;-79
2023/03/09 09:58:23;;;;;;;4.30;1.80;;;;;;;;;;6149111;23;20158;-80
2023/03/09 10:01:56;;;;;;;3.23;1.27;;;;;;;;;;6144044;23;20189;-79
2023/03/09 10:05:12;;;;;;;4.13;2.30;;;;;;;;;;6114749;23;20158;-79
2023/03/09 10:08:42;;;;;;;4.60;1.27;;;;;;;;;;6130876;23;20184;-78
2023/03/09 10:11:50;;;;;;;4.93;1.27;;;;;;;;;;6141980;23;20201;-79
2023/03/09 10:15:00;;;;;;;2.03;1.20;;;;;;;;;;6131146;23;20154;-78
2023/03/09 10:18:32;;;;;;;2.67;0.90;;;;;;;;;;6150427;23;20158;-79
2023/03/09 10:21:57;;;;;;;3.13;1.57;;;;;;;;;;6143606;23;20193;-79
2023/03/09 10:25:01;;;;;;;4.50;1.47;;;;;;;;;;6167392;23;20158;-79
2023/03/09 10:28:14;;;;;;;4.77;1.20;;;;;;;;;;6165182;23;20158;-79
2023/03/09 10:31:28;;;;;;;14.40;2.40;;;;;;;;;;6163141;23;20190;-79
2023/03/09 10:34:42;;;;;;;5.53;1.10;;;;;;;;;;6293896;22;20465;-79
2023/03/09 10:37:48;;;;;;;4.00;0.90;;;;;;;;;;6274860;22;20155;-79
2023/03/09 10:40:55;;;;;;;6.20;0.90;;;;;;;;;;6265255;22;20186;-79
2023/03/09 10:44:00;;;;;;;3.10;0.90;;;;;;;;;;6264612;22;20162;-80
2023/03/09 10:47:04;;;;;;;3.23;0.80;;;;;;;;;;6274213;22;20155;-79
2023/03/09 10:50:12;;;;;;;3.23;1.00;;;;;;;;;;6276175;22;20155;-79
2023/03/09 10:53:42;;;;;;;3.20;1.00;;;;;;;;;;6258177;22;20182;-79
2023/03/09 10:56:46;;;;;;;3.77;1.83;;;;;;;;;;6292851;22;20452;-78
2023/03/09 10:59:56;;;;;;;2.77;0.80;;;;;;;;;;6274201;22;20155;-79
2023/03/09 11:03:00;;;;;;;4.53;1.10;;;;;;;;;;6265512;22;20167;-78
2023/03/09 11:06:17;;;;;;;9.00;3.57;;;;;;;;;;6293187;22;20151;-79
2023/03/09 11:09:34;;;;;;;19.77;11.40;;;;;;;;;;6276192;22;20151;-80
2023/03/09 11:12:40;;;;;;;15.57;9.23;;;;;;;;;;6265693;22;20201;-79
2023/03/09 11:15:44;;;;;;;29.97;18.33;;;;;;;;;;6264964;22;20170;-80
2023/03/09 11:19:03;;;;;;;43.00;24.07;;;;;;;;;;6274219;22;20161;-79
2023/03/09 11:22:12;;;;;;;35.60;20.57;;;;;;;;;;6265405;22;20197;-79
2023/03/09 11:25:39;;;;;;;5.90;3.37;;;;;;;;;;6255454;22;20161;-78
2023/03/09 11:28:54;;;;;;;4.33;1.40;;;;;;;;;;6255122;22;20155;-78
2023/03/09 11:31:58;;;;;;;3.87;1.10;;;;;;;;;;6255996;22;20191;-79
2023/03/09 11:35:03;;;;;;;4.23;1.00;;;;;;;;;;6131110;23;20158;-77
2023/03/09 11:38:12;;;;;;;5.90;1.40;;;;;;;;;;6147284;23;20162;-78
2023/03/09 11:41:29;;;;;;;4.73;1.10;;;;;;;;;;6161994;23;20198;-77
2023/03/09 11:44:36;;;;;;;3.10;1.30;;;;;;;;;;6147744;23;20154;-78
2023/03/09 11:48:13;;;;;;;3.47;1.70;;;;;;;;;;6147261;23;20153;-79
2023/03/09 11:51:26;;;;;;;2.33;1.20;;;;;;;;;;6144210;23;20189;-80
2023/03/09 11:54:41;;;;;;;5.13;2.20;;;;;;;;;;6147894;23;20158;-77
2023/03/09 11:57:49;;;;;;;9.37;2.37;;;;;;;;;;6146916;23;20158;-78
2023/03/09 12:01:14;;;;;;;1.87;0.83;;;;;;;;;;6145347;23;20185;-78
2023/03/09 12:04:18;;;;;;;4.13;1.30;;;;;;;;;;6130754;23;20154;-79
2023/03/09 12:07:30;;;;;;;1.37;0.83;;;;;;;;;;6120268;23;20169;-78
2023/03/09 12:11:00;;;;;;;4.40;0.83;;;;;;;;;;6154994;23;20173;-78
2023/03/09 12:14:15;;;;;;;1.83;0.83;;;;;;;;;;6148281;23;20185;-78
2023/03/09 12:17:27;;;;;;;2.30;0.90;;;;;;;;;;6165537;23;20154;-78
2023/03/09 12:20:36;;;;;;;2.53;0.77;;;;;;;;;;6146531;23;20154;-78
2023/03/09 12:23:43;;;;;;;3.67;2.43;;;;;;;;;;6146532;23;20154;-78
2023/03/09 12:27:22;;;;;;;3.43;1.37;;;;;;;;;;6130822;23;20158;-77
2023/03/09 12:30:30;;;;;;;1.77;0.77;;;;;;;;;;6131571;23;20174;-78
2023/03/09 12:33:41;;;;;;;1.90;0.60;;;;;;;;;;6141464;23;20202;-78
2023/03/09 12:36:45;;;;;;;2.10;0.90;;;;;;;;;;6135418;23;20158;-78
2023/03/09 12:39:58;;;;;;;2.27;0.80;;;;;;;;;;6134622;23;20154;-79
2023/03/09 12:43:14;;;;;;;3.83;0.87;;;;;;;;;;6137122;23;20155;-79
2023/03/09 12:46:48;;;;;;;2.43;0.97;;;;;;;;;;6136659;23;20473;-78
2023/03/09 12:49:55;;;;;;;2.43;0.67;;;;;;;;;;6135825;23;20158;-79
2023/03/09 12:53:06;;;;;;;1.87;0.80;;;;;;;;;;6125642;23;20194;-79
2023/03/09 12:56:18;;;;;;;2.97;0.90;;;;;;;;;;6136471;23;20154;-79
2023/03/09 12:59:26;;;;;;;3.00;0.90;;;;;;;;;;6135954;23;20159;-79
2023/03/09 13:02:33;;;;;;;3.80;0.90;;;;;;;;;;6142716;23;20191;-79
2023/03/09 13:05:43;;;;;;;2.03;0.70;;;;;;;;;;6118442;23;20154;-79
2023/03/09 13:08:56;;;;;;;4.30;1.03;;;;;;;;;;6118132;23;20477;-79
2023/03/09 13:12:02;;;;;;;4.23;0.80;;;;;;;;;;6128424;23;20194;-79
2023/03/09 13:15:23;;;;;;;2.60;0.67;;;;;;;;;;6125010;23;20175;-79
2023/03/09 13:18:27;;;;;;;2.10;1.40;;;;;;;;;;6134867;23;20163;-81
2023/03/09 13:21:44;;;;;;;1.70;0.70;;;;;;;;;;6114188;23;20193;-79
2023/03/09 13:24:54;;;;;;;1.97;0.97;;;;;;;;;;6125806;23;20167;-80
2023/03/09 13:28:38;;;;;;;2.27;0.60;;;;;;;;;;6135894;23;20155;-79
2023/03/09 13:31:45;;;;;;;4.60;0.80;;;;;;;;;;6128592;23;20667;-80
2023/03/09 13:34:51;;;;;;;3.07;0.80;;;;;;;;;;6135398;23;20155;-80
2023/03/09 13:37:57;;;;;;;2.13;0.63;;;;;;;;;;6135975;23;20158;-79
2023/03/09 13:41:05;;;;;;;3.57;1.30;;;;;;;;;;6130483;23;20194;-78
2023/03/09 13:44:18;;;;;;;4.37;1.70;;;;;;;;;;6132803;23;20154;-78
2023/03/09 13:47:26;;;;;;;5.03;1.17;;;;;;;;;;6134522;23;20159;-77
2023/03/09 13:50:32;;;;;;;3.80;1.47;;;;;;;;;;6134225;23;20190;-78
2023/03/09 13:53:37;;;;;;;2.20;1.00;;;;;;;;;;6139281;23;20686;-78
2023/03/09 13:56:41;;;;;;;3.27;1.70;;;;;;;;;;6124164;23;20170;-79
2023/03/09 14:00:00;;;;;;;5.13;2.00;;;;;;;;;;6117485;23;20154;-79
2023/03/09 14:03:04;;;;;;;6.70;2.67;;;;;;;;;;6117894;23;20151;-80
2023/03/09 14:06:10;;;;;;;19.73;7.60;;;;;;;;;;6140670;23;20170;-80
2023/03/09 14:09:23;;;;;;;24.00;8.87;;;;;;;;;;6100657;23;20159;-79
2023/03/09 14:12:35;;;;;;;10.47;6.13;;;;;;;;;;6140198;23;20190;-80
2023/03/09 14:15:39;;;;;;;15.50;6.93;;;;;;;;;;6135566;23;20155;-79
2023/03/09 14:18:48;;;;;;;16.70;8.23;;;;;;;;;;6117874;23;20159;-77
2023/03/09 14:21:54;;;;;;;10.17;4.50;;;;;;;;;;6105425;23;20189;-77
2023/03/09 14:24:58;;;;;;;8.03;2.30;;;;;;;;;;6135782;23;20154;-77
2023/03/09 14:28:23;;;;;;;3.73;0.97;;;;;;;;;;6135032;23;20155;-77
2023/03/09 14:31:28;;;;;;;2.03;0.70;;;;;;;;;;6130736;23;20195;-78
2023/03/09 14:34:32;;;;;;;2.57;0.70;;;;;;;;;;6151026;23;20179;-78
2023/03/09 14:37:37;;;;;;;4.83;0.97;;;;;;;;;;6135631;23;20162;-79
2023/03/09 14:40:41;;;;;;;4.47;0.87;;;;;;;;;;6117997;23;20461;-80
2023/03/09 14:43:45;;;;;;;2.60;0.70;;;;;;;;;;6135899;23;20465;-79
2023/03/09 14:46:50;;;;;;;3.87;0.60;;;;;;;;;;6135283;23;20154;-79
2023/03/09 14:49:54;;;;;;;3.27;0.93;;;;;;;;;;6125880;23;20174;-77
2023/03/09 14:52:58;;;;;;;3.80;0.80;;;;;;;;;;6125616;23;20170;-78
2023/03/09 14:56:02;;;;;;;4.83;3.03;;;;;;;;;;6133273;23;20158;-77
2023/03/09 14:59:12;;;;;;;3.23;1.13;;;;;;;;;;6117574;23;20155;-80
2023/03/09 15:02:16;;;;;;;6.13;1.40;;;;;;;;;;6128812;23;20194;-80
2023/03/09 15:05:23;;;;;;;4.63;1.70;;;;;;;;;;6120798;23;20150;-81
2023/03/09 15:08:27;;;;;;;16.53;7.23;;;;;;;;;;6137148;23;20150;-80
2023/03/09 15:11:32;;;;;;;5.90;2.77;;;;;;;;;;6099119;23;20220;-80
2023/03/09 15:14:39;;;;;;;9.83;4.10;;;;;;;;;;6110297;23;20194;-81
2023/03/09 15:17:43;;;;;;;7.23;3.80;;;;;;;;;;6109492;23;20174;-80
2023/03/09 15:20:47;;;;;;;3.73;1.33;;;;;;;;;;6133160;23;20190;-80
2023/03/09 15:23:52;;;;;;;5.70;3.47;;;;;;;;;;6101456;23;20151;-80
2023/03/09 15:26:58;;;;;;;11.63;6.07;;;;;;;;;;6135507;23;20159;-79
2023/03/09 15:30:03;;;;;;;8.77;3.77;;;;;;;;;;6108862;23;20170;-80
2023/03/09 15:33:07;;;;;;;2.77;0.90;;;;;;;;;;6141596;23;20181;-80
2023/03/09 15:36:12;;;;;;;1.87;0.83;;;;;;;;;;6101810;23;20163;-80
2023/03/09 15:39:16;;;;;;;1.70;0.80;;;;;;;;;;6118458;23;20158;-79
2023/03/09 15:42:20;;;;;;;3.17;1.20;;;;;;;;;;6127402;23;20194;-79
2023/03/09 15:45:25;;;;;;;4.50;1.83;;;;;;;;;;6152309;23;20151;-79
2023/03/09 15:48:29;;;;;;;4.47;1.87;;;;;;;;;;6119425;23;20159;-80
2023/03/09 15:51:35;;;;;;;5.03;1.97;;;;;;;;;;6113905;23;20194;-79
2023/03/09 15:54:39;;;;;;;2.40;1.33;;;;;;;;;;6135895;23;20183;-79
2023/03/09 15:57:43;;;;;;;5.13;1.20;;;;;;;;;;6101477;23;20154;-79
2023/03/09 16:00:47;;;;;;;1.30;0.90;;;;;;;;;;6133103;23;20194;-79
2023/03/09 16:03:52;;;;;;;2.70;0.67;;;;;;;;;;6135610;23;20150;-79
2023/03/09 16:06:56;;;;;;;2.10;0.80;;;;;;;;;;6135643;23;20592;-80
2023/03/09 16:10:00;;;;;;;3.30;0.60;;;;;;;;;;6134917;23;20612;-79
2023/03/09 16:13:04;;;;;;;6.10;4.80;;;;;;;;;;6117788;23;20154;-79
2023/03/09 16:16:12;;;;;;;1.90;0.83;;;;;;;;;;6135608;23;20155;-81
2023/03/09 16:19:17;;;;;;;2.83;1.20;;;;;;;;;;6101852;23;20159;-79
2023/03/09 16:22:21;;;;;;;1.30;0.70;;;;;;;;;;6110675;23;20655;-79
2023/03/09 16:25:25;;;;;;;3.20;0.93;;;;;;;;;;6136748;23;20154;-80
2023/03/09 16:28:30;;;;;;;2.73;0.57;;;;;;;;;;6118635;23;20158;-80
2023/03/09 16:31:34;;;;;;;1.70;0.47;;;;;;;;;;6112974;23;20194;-80
2023/03/09 16:34:38;;;;;;;2.30;1.50;;;;;;;;;;6118279;23;20182;-81
2023/03/09 16:37:42;;;;;;;4.60;1.10;;;;;;;;;;6099983;23;20154;-80
2023/03/09 16:40:47;;;;;;;1.33;0.80;;;;;;;;;;6115665;23;20666;-80
2023/03/09 16:43:51;;;;;;;1.53;0.70;;;;;;;;;;6151580;23;20151;-81
2023/03/09 16:46:56;;;;;;;1.47;0.60;;;;;;;;;;6117455;23;20473;-80
2023/03/09 16:50:02;;;;;;;2.40;0.90;;;;;;;;;;6134899;23;20468;-80
2023/03/09 16:53:08;;;;;;;2.20;0.60;;;;;;;;;;6123763;23;20619;-81
2023/03/09 16:56:12;;;;;;;2.23;0.87;;;;;;;;;;6099775;23;20159;-79
2023/03/09 16:59:17;;;;;;;2.60;1.23;;;;;;;;;;6127129;23;20174;-79
2023/03/09 17:02:21;;;;;;;1.83;0.50;;;;;;;;;;6129162;23;20194;-79
2023/03/09 17:05:26;;;;;;;13.87;7.23;;;;;;;;;;6120420;23;20151;-78
2023/03/09 17:08:32;;;;;;;22.50;12.33;;;;;;;;;;6138556;23;20166;-79
2023/03/09 17:11:36;;;;;;;25.53;12.57;;;;;;;;;;6131581;23;20526;-79
2023/03/09 17:14:41;;;;;;;53.70;24.97;;;;;;;;;;6120204;23;20192;-79
2023/03/09 17:17:45;;;;;;;4.97;2.30;;;;;;;;;;6154018;23;20164;-79
2023/03/09 17:20:50;;;;;;;2.50;0.87;;;;;;;;;;6110746;23;20666;-78
2023/03/09 17:23:54;;;;;;;2.60;0.80;;;;;;;;;;6111585;23;20167;-79
2023/03/09 17:26:58;;;;;;;3.47;1.80;;;;;;;;;;6120839;23;20155;-78
2023/03/09 17:30:03;;;;;;;3.97;0.73;;;;;;;;;;6136254;23;20151;-78
2023/03/09 17:33:07;;;;;;;2.20;0.80;;;;;;;;;;6129767;23;20178;-80
2023/03/09 17:36:12;;;;;;;2.77;1.10;;;;;;;;;;6125127;23;20174;-79
2023/03/09 17:39:16;;;;;;;3.90;1.00;;;;;;;;;;6133751;23;20158;-79
2023/03/09 17:42:20;;;;;;;4.67;1.23;;;;;;;;;;6127926;23;20185;-78
2023/03/09 17:45:25;;;;;;;2.93;1.00;;;;;;;;;;6135165;23;20147;-78
2023/03/09 17:48:29;;;;;;;6.10;1.03;;;;;;;;;;6134712;23;20158;-78
2023/03/09 17:51:33;;;;;;;1.70;0.93;;;;;;;;;;6131831;23;20194;-78
2023/03/09 17:54:38;;;;;;;2.37;1.13;;;;;;;;;;6118790;23;20177;-79
2023/03/09 17:57:42;;;;;;;2.97;0.80;;;;;;;;;;6135409;23;20154;-78
2023/03/09 18:00:46;;;;;;;4.80;1.00;;;;;;;;;;6135640;23;20190;-78
2023/03/09 18:03:55;;;;;;;5.80;3.60;;;;;;;;;;6144653;23;20174;-78
2023/03/09 18:07:00;;;;;;;10.73;7.23;;;;;;;;;;6136817;23;20159;-78
2023/03/09 18:10:04;;;;;;;13.00;9.80;;;;;;;;;;6154905;23;20155;-77
2023/03/09 18:13:08;;;;;;;17.90;12.10;;;;;;;;;;6137681;23;20154;-78
2023/03/09 18:16:13;;;;;;;9.50;5.87;;;;;;;;;;6154903;23;20155;-78
2023/03/09 18:19:17;;;;;;;8.17;4.63;;;;;;;;;;6129258;23;20170;-79
2023/03/09 18:22:21;;;;;;;5.43;3.33;;;;;;;;;;6130157;23;20190;-78
2023/03/09 18:25:25;;;;;;;6.47;1.90;;;;;;;;;;6110589;23;20170;-77
2023/03/09 18:28:29;;;;;;;2.93;1.83;;;;;;;;;;6128263;23;20174;-78
2023/03/09 18:31:34;;;;;;;3.77;1.70;;;;;;;;;;6132069;23;20190;-78
2023/03/09 18:34:43;;;;;;;3.37;1.40;;;;;;;;;;6121548;23;20500;-78
2023/03/09 18:37:49;;;;;;;5.40;1.60;;;;;;;;;;6139223;23;20155;-79
2023/03/09 18:40:53;;;;;;;4.03;1.70;;;;;;;;;;6134492;23;20190;-78